sensor_id;sensor_type;location;lat;lon;timestamp;P1;durP1;ratioP1;P2;durP2;ratioP2
38637;SDS011;24401;53.034;-3.030;2023-02-12T00:02:20;0.97;;;0.50;;
38637;SDS011;24401;53.034;-3.030;2023-02-12T00:04:50;2.97;;;0.30;;
38637;SDS011;24401;53.034;-3.030;2023-02-12T00:07:21;0.53;;;0.30;;
38637;SDS011;24401;53.034;-3.030;2023-02-12T00:09:51;1.60;;;0.77;;
38637;SDS011;24401;53.034;-3.030;2023-02-12T00:12:21;0.60;;;0.50;;
38637;SDS011;24401;53.034;-3.030;2023-02-12T00:14:51;1.70;;;0.50;;
38637;SDS011;24401;53.034;-3.030;2023-02-12T00:17:22;2.23;;;0.57;;
38637;SDS011;24401;53.034;-3.030;2023-02-12T00:19:52;1.33;;;0.40;;
38637;SDS011;24401;53.034;-3.030;2023-02-12T00:22:22;3.30;;;0.50;;
38637;SDS011;24401;53.034;-3.030;2023-02-12T00:24:52;1.20;;;0.40;;
38637;SDS011;24401;53.034;-3.030;2023-02-12T00:27:23;2.43;;;0.27;;
38637;SDS011;24401;53.034;-3.030;2023-02-12T00:29:53;0.40;;;0.40;;
38637;SDS011;24401;53.034;-3.030;2023-02-12T00:32:24;1.20;;;0.40;;
38637;SDS011;24401;53.034;-3.030;2023-02-12T00:34:54;1.23;;;0.47;;
38637;SDS011;24401;53.034;-3.030;2023-02-12T00:37:24;2.97;;;0.40;;
38637;SDS011;24401;53.034;-3.030;2023-02-12T00:39:54;0.30;;;0.30;;
38637;SDS011;24401;53.034;-3.030;2023-02-12T00:42:24;1.90;;;0.40;;
38637;SDS011;24401;53.034;-3.030;2023-02-12T00:44:55;0.30;;;0.30;;
38637;SDS011;24401;53.034;-3.030;2023-02-12T00:47:25;0.73;;;0.30;;
38637;SDS011;24401;53.034;-3.030;2023-02-12T00:49:55;4.10;;;0.60;;
38637;SDS011;24401;53.034;-3.030;2023-02-12T00:52:25;1.20;;;0.50;;
38637;SDS011;24401;53.034;-3.030;2023-02-12T00:54:56;1.10;;;0.43;;
38637;SDS011;24401;53.034;-3.030;2023-02-12T00:57:26;0.27;;;0.27;;
38637;SDS011;24401;53.034;-3.030;2023-02-12T00:59:56;1.50;;;0.50;;
38637;SDS011;24401;53.034;-3.030;2023-02-12T01:02:26;1.60;;;0.50;;
38637;SDS011;24401;53.034;-3.030;2023-02-12T01:04:56;3.80;;;0.40;;
38637;SDS011;24401;53.034;-3.030;2023-02-12T01:07:27;2.23;;;0.47;;
38637;SDS011;24401;53.034;-3.030;2023-02-12T01:09:57;0.87;;;0.40;;
38637;SDS011;24401;53.034;-3.030;2023-02-12T01:12:28;0.50;;;0.40;;
38637;SDS011;24401;53.034;-3.030;2023-02-12T01:14:58;1.13;;;0.33;;
38637;SDS011;24401;53.034;-3.030;2023-02-12T01:17:28;0.30;;;0.30;;
38637;SDS011;24401;53.034;-3.030;2023-02-12T01:19:59;0.83;;;0.30;;
38637;SDS011;24401;53.034;-3.030;2023-02-12T01:22:29;2.20;;;0.60;;
38637;SDS011;24401;53.034;-3.030;2023-02-12T01:24:59;4.07;;;0.57;;
38637;SDS011;24401;53.034;-3.030;2023-02-12T01:27:29;0.93;;;0.43;;
38637;SDS011;24401;53.034;-3.030;2023-02-12T01:30:00;1.60;;;0.40;;
38637;SDS011;24401;53.034;-3.030;2023-02-12T01:32:30;1.47;;;0.27;;
38637;SDS011;24401;53.034;-3.030;2023-02-12T01:35:01;3.17;;;0.50;;
38637;SDS011;24401;53.034;-3.030;2023-02-12T01:37:33;0.28;;;0.28;;
38637;SDS011;24401;53.034;-3.030;2023-02-12T01:42:34;2.47;;;0.50;;
38637;SDS011;24401;53.034;-3.030;2023-02-12T01:47:44;2.58;;;0.60;;
38637;SDS011;24401;53.034;-3.030;2023-02-12T01:50:15;3.10;;;0.40;;
38637;SDS011;24401;53.034;-3.030;2023-02-12T01:52:47;0.30;;;0.22;;
38637;SDS011;24401;53.034;-3.030;2023-02-12T01:55:19;1.42;;;0.32;;
38637;SDS011;24401;53.034;-3.030;2023-02-12T01:57:49;1.13;;;0.40;;
38637;SDS011;24401;53.034;-3.030;2023-02-12T02:00:21;3.07;;;0.53;;
38637;SDS011;24401;53.034;-3.030;2023-02-12T02:02:52;1.15;;;0.40;;
38637;SDS011;24401;53.034;-3.030;2023-02-12T02:05:30;0.50;;;0.28;;
38637;SDS011;24401;53.034;-3.030;2023-02-12T02:08:04;0.70;;;0.38;;
38637;SDS011;24401;53.034;-3.030;2023-02-12T02:10:35;0.73;;;0.27;;
38637;SDS011;24401;53.034;-3.030;2023-02-12T02:13:05;0.97;;;0.40;;
38637;SDS011;24401;53.034;-3.030;2023-02-12T02:15:55;0.70;;;0.40;;
38637;SDS011;24401;53.034;-3.030;2023-02-12T02:29:02;0.40;;;0.20;;
38637;SDS011;24401;53.034;-3.030;2023-02-12T02:31:41;0.82;;;0.50;;
38637;SDS011;24401;53.034;-3.030;2023-02-12T02:36:50;1.53;;;0.50;;
38637;SDS011;24401;53.034;-3.030;2023-02-12T02:39:42;2.97;;;0.50;;
38637;SDS011;24401;53.034;-3.030;2023-02-12T02:45:05;0.90;;;0.40;;
38637;SDS011;24401;53.034;-3.030;2023-02-12T02:47:39;1.20;;;0.55;;
38637;SDS011;24401;53.034;-3.030;2023-02-12T02:50:15;1.55;;;0.50;;
38637;SDS011;24401;53.034;-3.030;2023-02-12T02:52:52;0.82;;;0.32;;
38637;SDS011;24401;53.034;-3.030;2023-02-12T02:55:25;0.73;;;0.40;;
38637;SDS011;24401;53.034;-3.030;2023-02-12T02:57:59;1.38;;;0.32;;
38637;SDS011;24401;53.034;-3.030;2023-02-12T03:00:34;3.35;;;0.50;;
38637;SDS011;24401;53.034;-3.030;2023-02-12T03:03:07;2.03;;;0.45;;
38637;SDS011;24401;53.034;-3.030;2023-02-12T03:05:39;0.55;;;0.40;;
38637;SDS011;24401;53.034;-3.030;2023-02-12T03:08:14;1.42;;;0.40;;
38637;SDS011;24401;53.034;-3.030;2023-02-12T03:10:48;0.77;;;0.40;;
38637;SDS011;24401;53.034;-3.030;2023-02-12T03:13:22;0.30;;;0.30;;
38637;SDS011;24401;53.034;-3.030;2023-02-12T03:15:58;0.90;;;0.32;;
38637;SDS011;24401;53.034;-3.030;2023-02-12T03:18:30;1.75;;;0.30;;
38637;SDS011;24401;53.034;-3.030;2023-02-12T03:21:04;0.75;;;0.30;;
38637;SDS011;24401;53.034;-3.030;2023-02-12T03:23:39;1.48;;;0.40;;
38637;SDS011;24401;53.034;-3.030;2023-02-12T03:26:21;1.67;;;0.40;;
38637;SDS011;24401;53.034;-3.030;2023-02-12T03:28:52;0.98;;;0.47;;
38637;SDS011;24401;53.034;-3.030;2023-02-12T03:34:07;0.93;;;0.40;;
38637;SDS011;24401;53.034;-3.030;2023-02-12T03:39:13;1.55;;;0.30;;
38637;SDS011;24401;53.034;-3.030;2023-02-12T03:41:46;1.00;;;0.50;;
38637;SDS011;24401;53.034;-3.030;2023-02-12T03:52:26;2.57;;;0.53;;
38637;SDS011;24401;53.034;-3.030;2023-02-12T03:54:57;1.35;;;0.50;;
38637;SDS011;24401;53.034;-3.030;2023-02-12T03:57:28;1.10;;;0.70;;
38637;SDS011;24401;53.034;-3.030;2023-02-12T04:00:02;1.23;;;0.52;;
38637;SDS011;24401;53.034;-3.030;2023-02-12T04:02:33;4.47;;;0.40;;
38637;SDS011;24401;53.034;-3.030;2023-02-12T04:05:07;3.67;;;0.30;;
38637;SDS011;24401;53.034;-3.030;2023-02-12T04:07:37;0.85;;;0.47;;
38637;SDS011;24401;53.034;-3.030;2023-02-12T04:10:08;2.33;;;0.47;;
38637;SDS011;24401;53.034;-3.030;2023-02-12T04:12:39;2.90;;;0.30;;
38637;SDS011;24401;53.034;-3.030;2023-02-12T04:30:44;5.00;;;0.47;;
38637;SDS011;24401;53.034;-3.030;2023-02-12T04:33:18;1.80;;;0.43;;
38637;SDS011;24401;53.034;-3.030;2023-02-12T04:36:00;0.75;;;0.40;;
38637;SDS011;24401;53.034;-3.030;2023-02-12T04:38:33;3.13;;;0.43;;
38637;SDS011;24401;53.034;-3.030;2023-02-12T04:41:05;0.40;;;0.40;;
38637;SDS011;24401;53.034;-3.030;2023-02-12T04:43:36;1.37;;;0.50;;
38637;SDS011;24401;53.034;-3.030;2023-02-12T04:46:06;2.57;;;0.70;;
38637;SDS011;24401;53.034;-3.030;2023-02-12T04:48:43;2.10;;;0.87;;
38637;SDS011;24401;53.034;-3.030;2023-02-12T04:51:15;0.50;;;0.50;;
38637;SDS011;24401;53.034;-3.030;2023-02-12T04:53:46;1.37;;;0.60;;
38637;SDS011;24401;53.034;-3.030;2023-02-12T04:56:16;4.10;;;0.70;;
38637;SDS011;24401;53.034;-3.030;2023-02-12T04:58:46;3.87;;;0.80;;
38637;SDS011;24401;53.034;-3.030;2023-02-12T05:01:17;0.60;;;0.50;;
38637;SDS011;24401;53.034;-3.030;2023-02-12T05:03:47;1.23;;;0.50;;
38637;SDS011;24401;53.034;-3.030;2023-02-12T05:06:17;6.47;;;0.60;;
38637;SDS011;24401;53.034;-3.030;2023-02-12T05:08:48;1.10;;;0.57;;
38637;SDS011;24401;53.034;-3.030;2023-02-12T05:11:18;3.03;;;0.50;;
38637;SDS011;24401;53.034;-3.030;2023-02-12T05:13:49;0.77;;;0.57;;
38637;SDS011;24401;53.034;-3.030;2023-02-12T05:16:20;2.73;;;0.60;;
38637;SDS011;24401;53.034;-3.030;2023-02-12T05:18:50;1.50;;;0.70;;
38637;SDS011;24401;53.034;-3.030;2023-02-12T05:21:20;6.97;;;0.57;;
38637;SDS011;24401;53.034;-3.030;2023-02-12T05:23:50;0.63;;;0.57;;
38637;SDS011;24401;53.034;-3.030;2023-02-12T05:26:21;1.80;;;0.67;;
38637;SDS011;24401;53.034;-3.030;2023-02-12T05:28:51;1.30;;;0.53;;
38637;SDS011;24401;53.034;-3.030;2023-02-12T05:31:21;1.33;;;0.77;;
38637;SDS011;24401;53.034;-3.030;2023-02-12T05:33:52;3.73;;;0.80;;
38637;SDS011;24401;53.034;-3.030;2023-02-12T05:36:22;2.30;;;0.70;;
38637;SDS011;24401;53.034;-3.030;2023-02-12T05:38:55;1.93;;;0.60;;
38637;SDS011;24401;53.034;-3.030;2023-02-12T05:41:26;4.13;;;0.60;;
38637;SDS011;24401;53.034;-3.030;2023-02-12T05:43:56;1.60;;;0.60;;
38637;SDS011;24401;53.034;-3.030;2023-02-12T05:46:26;1.47;;;0.70;;
38637;SDS011;24401;53.034;-3.030;2023-02-12T05:48:57;1.30;;;0.80;;
38637;SDS011;24401;53.034;-3.030;2023-02-12T05:51:27;1.10;;;0.60;;
38637;SDS011;24401;53.034;-3.030;2023-02-12T05:53:58;1.00;;;0.60;;
38637;SDS011;24401;53.034;-3.030;2023-02-12T05:56:30;0.40;;;0.40;;
38637;SDS011;24401;53.034;-3.030;2023-02-12T05:59:01;0.40;;;0.40;;
38637;SDS011;24401;53.034;-3.030;2023-02-12T06:01:40;2.28;;;0.70;;
38637;SDS011;24401;53.034;-3.030;2023-02-12T06:04:23;3.15;;;0.60;;
38637;SDS011;24401;53.034;-3.030;2023-02-12T06:06:54;0.93;;;0.52;;
38637;SDS011;24401;53.034;-3.030;2023-02-12T06:09:24;0.50;;;0.50;;
38637;SDS011;24401;53.034;-3.030;2023-02-12T06:11:55;7.70;;;0.87;;
38637;SDS011;24401;53.034;-3.030;2023-02-12T06:14:25;1.77;;;0.50;;
38637;SDS011;24401;53.034;-3.030;2023-02-12T06:16:55;1.33;;;0.60;;
38637;SDS011;24401;53.034;-3.030;2023-02-12T06:19:25;1.17;;;0.80;;
38637;SDS011;24401;53.034;-3.030;2023-02-12T06:21:56;0.73;;;0.60;;
38637;SDS011;24401;53.034;-3.030;2023-02-12T06:24:26;1.17;;;0.90;;
38637;SDS011;24401;53.034;-3.030;2023-02-12T06:26:57;0.50;;;0.40;;
38637;SDS011;24401;53.034;-3.030;2023-02-12T06:29:27;2.43;;;0.50;;
38637;SDS011;24401;53.034;-3.030;2023-02-12T06:31:57;2.27;;;0.60;;
38637;SDS011;24401;53.034;-3.030;2023-02-12T06:34:28;1.50;;;0.60;;
38637;SDS011;24401;53.034;-3.030;2023-02-12T06:36:58;0.80;;;0.60;;
38637;SDS011;24401;53.034;-3.030;2023-02-12T06:39:28;1.43;;;0.80;;
38637;SDS011;24401;53.034;-3.030;2023-02-12T06:41:58;1.03;;;0.60;;
38637;SDS011;24401;53.034;-3.030;2023-02-12T06:44:28;1.90;;;0.70;;
38637;SDS011;24401;53.034;-3.030;2023-02-12T06:46:59;1.20;;;0.90;;
38637;SDS011;24401;53.034;-3.030;2023-02-12T06:49:29;0.77;;;0.60;;
38637;SDS011;24401;53.034;-3.030;2023-02-12T06:51:59;1.50;;;0.50;;
38637;SDS011;24401;53.034;-3.030;2023-02-12T06:54:30;0.73;;;0.53;;
38637;SDS011;24401;53.034;-3.030;2023-02-12T06:57:00;3.50;;;0.70;;
38637;SDS011;24401;53.034;-3.030;2023-02-12T06:59:30;2.57;;;1.23;;
38637;SDS011;24401;53.034;-3.030;2023-02-12T07:02:00;2.00;;;0.80;;
38637;SDS011;24401;53.034;-3.030;2023-02-12T07:04:31;1.50;;;0.40;;
38637;SDS011;24401;53.034;-3.030;2023-02-12T07:07:01;4.03;;;0.67;;
38637;SDS011;24401;53.034;-3.030;2023-02-12T07:09:31;3.40;;;0.70;;
38637;SDS011;24401;53.034;-3.030;2023-02-12T07:12:01;1.60;;;0.60;;
38637;SDS011;24401;53.034;-3.030;2023-02-12T07:14:32;1.43;;;0.53;;
38637;SDS011;24401;53.034;-3.030;2023-02-12T07:17:02;0.57;;;0.50;;
38637;SDS011;24401;53.034;-3.030;2023-02-12T07:22:04;0.50;;;0.40;;
38637;SDS011;24401;53.034;-3.030;2023-02-12T07:24:34;2.67;;;0.60;;
38637;SDS011;24401;53.034;-3.030;2023-02-12T07:27:04;1.47;;;0.60;;
38637;SDS011;24401;53.034;-3.030;2023-02-12T07:29:35;0.60;;;0.47;;
38637;SDS011;24401;53.034;-3.030;2023-02-12T07:32:05;8.57;;;0.80;;
38637;SDS011;24401;53.034;-3.030;2023-02-12T07:34:35;4.40;;;0.77;;
38637;SDS011;24401;53.034;-3.030;2023-02-12T07:37:06;8.20;;;0.90;;
38637;SDS011;24401;53.034;-3.030;2023-02-12T07:39:36;1.80;;;0.90;;
38637;SDS011;24401;53.034;-3.030;2023-02-12T07:42:06;2.00;;;0.43;;
38637;SDS011;24401;53.034;-3.030;2023-02-12T07:44:37;1.47;;;1.00;;
38637;SDS011;24401;53.034;-3.030;2023-02-12T07:47:08;2.57;;;0.90;;
38637;SDS011;24401;53.034;-3.030;2023-02-12T07:49:38;1.43;;;0.50;;
38637;SDS011;24401;53.034;-3.030;2023-02-12T07:52:08;0.50;;;0.50;;
38637;SDS011;24401;53.034;-3.030;2023-02-12T07:54:38;3.40;;;0.60;;
38637;SDS011;24401;53.034;-3.030;2023-02-12T07:57:09;1.40;;;0.73;;
38637;SDS011;24401;53.034;-3.030;2023-02-12T07:59:39;0.83;;;0.60;;
38637;SDS011;24401;53.034;-3.030;2023-02-12T08:02:09;1.07;;;0.60;;
38637;SDS011;24401;53.034;-3.030;2023-02-12T08:04:39;1.30;;;0.50;;
38637;SDS011;24401;53.034;-3.030;2023-02-12T08:07:10;1.50;;;0.60;;
38637;SDS011;24401;53.034;-3.030;2023-02-12T08:09:40;0.57;;;0.50;;
38637;SDS011;24401;53.034;-3.030;2023-02-12T08:12:10;1.40;;;0.50;;
38637;SDS011;24401;53.034;-3.030;2023-02-12T08:14:41;2.07;;;0.60;;
38637;SDS011;24401;53.034;-3.030;2023-02-12T08:17:11;1.17;;;0.77;;
38637;SDS011;24401;53.034;-3.030;2023-02-12T08:19:41;0.73;;;0.70;;
38637;SDS011;24401;53.034;-3.030;2023-02-12T08:22:11;1.60;;;0.67;;
38637;SDS011;24401;53.034;-3.030;2023-02-12T08:24:42;2.70;;;1.00;;
38637;SDS011;24401;53.034;-3.030;2023-02-12T08:27:12;1.40;;;0.60;;
38637;SDS011;24401;53.034;-3.030;2023-02-12T08:29:42;1.70;;;0.67;;
38637;SDS011;24401;53.034;-3.030;2023-02-12T08:32:13;2.67;;;0.73;;
38637;SDS011;24401;53.034;-3.030;2023-02-12T08:34:43;1.43;;;0.73;;
38637;SDS011;24401;53.034;-3.030;2023-02-12T08:37:13;1.80;;;0.97;;
38637;SDS011;24401;53.034;-3.030;2023-02-12T08:39:43;1.17;;;0.90;;
38637;SDS011;24401;53.034;-3.030;2023-02-12T08:42:14;0.70;;;0.70;;
38637;SDS011;24401;53.034;-3.030;2023-02-12T08:44:44;4.13;;;0.83;;
38637;SDS011;24401;53.034;-3.030;2023-02-12T08:47:14;0.90;;;0.77;;
38637;SDS011;24401;53.034;-3.030;2023-02-12T08:49:44;1.92;;;0.80;;
38637;SDS011;24401;53.034;-3.030;2023-02-12T08:52:15;1.77;;;0.80;;
38637;SDS011;24401;53.034;-3.030;2023-02-12T08:54:45;1.03;;;0.80;;
38637;SDS011;24401;53.034;-3.030;2023-02-12T08:57:15;0.80;;;0.80;;
38637;SDS011;24401;53.034;-3.030;2023-02-12T08:59:47;1.67;;;1.10;;
38637;SDS011;24401;53.034;-3.030;2023-02-12T09:02:17;2.47;;;0.98;;
38637;SDS011;24401;53.034;-3.030;2023-02-12T09:04:47;1.77;;;0.90;;
38637;SDS011;24401;53.034;-3.030;2023-02-12T09:07:17;2.77;;;1.00;;
38637;SDS011;24401;53.034;-3.030;2023-02-12T09:09:48;2.27;;;0.90;;
38637;SDS011;24401;53.034;-3.030;2023-02-12T09:12:18;3.43;;;0.80;;
38637;SDS011;24401;53.034;-3.030;2023-02-12T09:14:48;1.23;;;1.13;;
38637;SDS011;24401;53.034;-3.030;2023-02-12T09:17:18;2.10;;;1.03;;
38637;SDS011;24401;53.034;-3.030;2023-02-12T09:19:49;3.53;;;1.13;;
38637;SDS011;24401;53.034;-3.030;2023-02-12T09:22:19;1.53;;;0.93;;
38637;SDS011;24401;53.034;-3.030;2023-02-12T09:24:49;1.53;;;1.30;;
38637;SDS011;24401;53.034;-3.030;2023-02-12T09:27:20;4.20;;;1.03;;
38637;SDS011;24401;53.034;-3.030;2023-02-12T09:29:50;1.07;;;0.77;;
38637;SDS011;24401;53.034;-3.030;2023-02-12T09:32:20;3.50;;;0.90;;
38637;SDS011;24401;53.034;-3.030;2023-02-12T09:34:50;1.00;;;0.90;;
38637;SDS011;24401;53.034;-3.030;2023-02-12T09:37:21;1.33;;;0.80;;
38637;SDS011;24401;53.034;-3.030;2023-02-12T09:39:51;0.70;;;0.70;;
38637;SDS011;24401;53.034;-3.030;2023-02-12T09:42:33;1.63;;;1.00;;
38637;SDS011;24401;53.034;-3.030;2023-02-12T09:45:15;3.35;;;0.80;;
38637;SDS011;24401;53.034;-3.030;2023-02-12T09:48:02;1.17;;;0.60;;
38637;SDS011;24401;53.034;-3.030;2023-02-12T09:53:17;0.52;;;0.52;;
38637;SDS011;24401;53.034;-3.030;2023-02-12T09:55:48;1.33;;;0.57;;
38637;SDS011;24401;53.034;-3.030;2023-02-12T09:58:29;6.37;;;0.63;;
38637;SDS011;24401;53.034;-3.030;2023-02-12T10:01:08;1.30;;;0.70;;
38637;SDS011;24401;53.034;-3.030;2023-02-12T10:03:40;0.57;;;0.57;;
38637;SDS011;24401;53.034;-3.030;2023-02-12T10:06:12;1.47;;;0.60;;
38637;SDS011;24401;53.034;-3.030;2023-02-12T10:20:14;0.88;;;0.73;;
38637;SDS011;24401;53.034;-3.030;2023-02-12T10:24:56;1.00;;;0.90;;
38637;SDS011;24401;53.034;-3.030;2023-02-12T10:27:41;0.85;;;0.60;;
38637;SDS011;24401;53.034;-3.030;2023-02-12T10:30:13;0.40;;;0.40;;
38637;SDS011;24401;53.034;-3.030;2023-02-12T10:32:43;2.08;;;0.93;;
38637;SDS011;24401;53.034;-3.030;2023-02-12T10:35:15;2.67;;;0.80;;
38637;SDS011;24401;53.034;-3.030;2023-02-12T10:42:48;0.80;;;0.80;;
38637;SDS011;24401;53.034;-3.030;2023-02-12T10:45:20;2.17;;;0.70;;
38637;SDS011;24401;53.034;-3.030;2023-02-12T10:47:52;1.40;;;0.95;;
38637;SDS011;24401;53.034;-3.030;2023-02-12T10:52:55;0.98;;;0.82;;
38637;SDS011;24401;53.034;-3.030;2023-02-12T10:55:31;2.00;;;0.63;;
38637;SDS011;24401;53.034;-3.030;2023-02-12T10:58:02;1.42;;;0.90;;
38637;SDS011;24401;53.034;-3.030;2023-02-12T11:00:35;4.95;;;0.82;;
38637;SDS011;24401;53.034;-3.030;2023-02-12T11:05:36;2.07;;;0.80;;
38637;SDS011;24401;53.034;-3.030;2023-02-12T11:08:09;2.20;;;1.10;;
38637;SDS011;24401;53.034;-3.030;2023-02-12T11:10:54;0.80;;;0.75;;
38637;SDS011;24401;53.034;-3.030;2023-02-12T11:13:31;2.75;;;0.80;;
38637;SDS011;24401;53.034;-3.030;2023-02-12T11:16:01;0.97;;;0.80;;
38637;SDS011;24401;53.034;-3.030;2023-02-12T11:18:32;5.33;;;0.73;;
38637;SDS011;24401;53.034;-3.030;2023-02-12T11:21:06;1.47;;;1.20;;
38637;SDS011;24401;53.034;-3.030;2023-02-12T11:23:39;1.15;;;0.80;;
38637;SDS011;24401;53.034;-3.030;2023-02-12T11:28:59;2.55;;;0.75;;
38637;SDS011;24401;53.034;-3.030;2023-02-12T11:31:30;11.43;;;0.77;;
38637;SDS011;24401;53.034;-3.030;2023-02-12T11:36:39;1.25;;;0.80;;
38637;SDS011;24401;53.034;-3.030;2023-02-12T11:39:26;2.22;;;1.20;;
38637;SDS011;24401;53.034;-3.030;2023-02-12T11:41:58;4.85;;;1.13;;
38637;SDS011;24401;53.034;-3.030;2023-02-12T11:44:31;1.20;;;1.05;;
38637;SDS011;24401;53.034;-3.030;2023-02-12T11:52:46;5.30;;;0.95;;
38637;SDS011;24401;53.034;-3.030;2023-02-12T11:57:49;1.07;;;0.70;;
38637;SDS011;24401;53.034;-3.030;2023-02-12T12:03:00;0.75;;;0.73;;
38637;SDS011;24401;53.034;-3.030;2023-02-12T12:05:34;1.08;;;0.98;;
38637;SDS011;24401;53.034;-3.030;2023-02-12T12:10:37;1.45;;;0.90;;
38637;SDS011;24401;53.034;-3.030;2023-02-12T12:13:11;2.63;;;1.13;;
38637;SDS011;24401;53.034;-3.030;2023-02-12T12:15:43;1.40;;;1.10;;
38637;SDS011;24401;53.034;-3.030;2023-02-12T12:21:37;1.55;;;1.30;;
38637;SDS011;24401;53.034;-3.030;2023-02-12T12:24:19;1.85;;;1.55;;
38637;SDS011;24401;53.034;-3.030;2023-02-12T12:26:54;1.40;;;1.30;;
38637;SDS011;24401;53.034;-3.030;2023-02-12T12:29:40;3.70;;;1.10;;
38637;SDS011;24401;53.034;-3.030;2023-02-12T12:32:16;1.63;;;1.10;;
38637;SDS011;24401;53.034;-3.030;2023-02-12T12:34:47;1.73;;;1.43;;
38637;SDS011;24401;53.034;-3.030;2023-02-12T12:37:29;3.97;;;1.37;;
38637;SDS011;24401;53.034;-3.030;2023-02-12T12:40:15;1.70;;;1.33;;
38637;SDS011;24401;53.034;-3.030;2023-02-12T12:42:58;3.92;;;1.45;;
38637;SDS011;24401;53.034;-3.030;2023-02-12T12:48:24;4.30;;;2.00;;
38637;SDS011;24401;53.034;-3.030;2023-02-12T12:54:08;1.60;;;1.27;;
38637;SDS011;24401;53.034;-3.030;2023-02-12T13:04:17;1.87;;;1.60;;
38637;SDS011;24401;53.034;-3.030;2023-02-12T13:09:27;4.40;;;1.70;;
38637;SDS011;24401;53.034;-3.030;2023-02-12T13:15:07;2.13;;;1.92;;
38637;SDS011;24401;53.034;-3.030;2023-02-12T13:17:43;2.70;;;2.00;;
38637;SDS011;24401;53.034;-3.030;2023-02-12T13:27:59;3.13;;;1.70;;
38637;SDS011;24401;53.034;-3.030;2023-02-12T13:30:38;8.05;;;2.60;;
38637;SDS011;24401;53.034;-3.030;2023-02-12T13:33:15;2.50;;;2.30;;
38637;SDS011;24401;53.034;-3.030;2023-02-12T13:35:47;2.47;;;2.08;;
38637;SDS011;24401;53.034;-3.030;2023-02-12T13:38:20;7.35;;;2.50;;
38637;SDS011;24401;53.034;-3.030;2023-02-12T13:40:53;2.63;;;2.13;;
38637;SDS011;24401;53.034;-3.030;2023-02-12T13:46:05;2.97;;;2.42;;
38637;SDS011;24401;53.034;-3.030;2023-02-12T13:56:49;2.67;;;2.40;;
38637;SDS011;24401;53.034;-3.030;2023-02-12T14:02:44;2.33;;;2.13;;
38637;SDS011;24401;53.034;-3.030;2023-02-12T14:07:23;2.33;;;2.20;;
38637;SDS011;24401;53.034;-3.030;2023-02-12T14:12:27;2.23;;;2.13;;
38637;SDS011;24401;53.034;-3.030;2023-02-12T14:15:07;2.97;;;2.67;;
38637;SDS011;24401;53.034;-3.030;2023-02-12T14:17:39;2.47;;;2.28;;
38637;SDS011;24401;53.034;-3.030;2023-02-12T14:20:29;4.53;;;2.83;;
38637;SDS011;24401;53.034;-3.030;2023-02-12T14:23:18;2.45;;;2.20;;
38637;SDS011;24401;53.034;-3.030;2023-02-12T14:25:59;3.03;;;2.70;;
38637;SDS011;24401;53.034;-3.030;2023-02-12T14:28:47;3.75;;;2.60;;
38637;SDS011;24401;53.034;-3.030;2023-02-12T14:36:47;3.08;;;2.88;;
38637;SDS011;24401;53.034;-3.030;2023-02-12T14:41:52;3.17;;;2.80;;
38637;SDS011;24401;53.034;-3.030;2023-02-12T14:46:56;3.40;;;3.10;;
38637;SDS011;24401;53.034;-3.030;2023-02-12T14:49:27;2.75;;;2.55;;
38637;SDS011;24401;53.034;-3.030;2023-02-12T14:57:19;3.75;;;3.20;;
38637;SDS011;24401;53.034;-3.030;2023-02-12T15:02:40;3.97;;;3.08;;
38637;SDS011;24401;53.034;-3.030;2023-02-12T15:05:15;4.23;;;3.70;;
38637;SDS011;24401;53.034;-3.030;2023-02-12T15:07:49;3.00;;;2.78;;
38637;SDS011;24401;53.034;-3.030;2023-02-12T15:10:22;4.70;;;4.35;;
38637;SDS011;24401;53.034;-3.030;2023-02-12T15:15:27;3.58;;;3.33;;
38637;SDS011;24401;53.034;-3.030;2023-02-12T15:18:18;4.05;;;3.75;;
38637;SDS011;24401;53.034;-3.030;2023-02-12T15:21:36;3.20;;;2.92;;
38637;SDS011;24401;53.034;-3.030;2023-02-12T15:23:42;4.15;;;3.28;;
38637;SDS011;24401;53.034;-3.030;2023-02-12T15:26:14;7.88;;;3.70;;
38637;SDS011;24401;53.034;-3.030;2023-02-12T15:28:46;3.42;;;3.22;;
38637;SDS011;24401;53.034;-3.030;2023-02-12T15:33:51;6.35;;;3.45;;
38637;SDS011;24401;53.034;-3.030;2023-02-12T15:36:25;6.05;;;3.58;;
38637;SDS011;24401;53.034;-3.030;2023-02-12T15:38:56;4.88;;;3.78;;
38637;SDS011;24401;53.034;-3.030;2023-02-12T15:44:02;4.32;;;3.92;;
38637;SDS011;24401;53.034;-3.030;2023-02-12T15:46:32;3.80;;;3.50;;
38637;SDS011;24401;53.034;-3.030;2023-02-12T15:49:16;4.10;;;3.60;;
38637;SDS011;24401;53.034;-3.030;2023-02-12T15:51:47;3.95;;;3.60;;
38637;SDS011;24401;53.034;-3.030;2023-02-12T15:54:17;3.97;;;3.67;;
38637;SDS011;24401;53.034;-3.030;2023-02-12T15:56:48;4.88;;;3.75;;
38637;SDS011;24401;53.034;-3.030;2023-02-12T15:59:20;3.27;;;2.97;;
38637;SDS011;24401;53.034;-3.030;2023-02-12T16:01:52;3.67;;;3.38;;
38637;SDS011;24401;53.034;-3.030;2023-02-12T16:04:23;3.75;;;3.45;;
38637;SDS011;24401;53.034;-3.030;2023-02-12T16:06:54;6.22;;;3.75;;
38637;SDS011;24401;53.034;-3.030;2023-02-12T16:09:27;3.53;;;3.10;;
38637;SDS011;24401;53.034;-3.030;2023-02-12T16:12:02;5.57;;;2.83;;
38637;SDS011;24401;53.034;-3.030;2023-02-12T16:14:38;3.70;;;3.40;;
38637;SDS011;24401;53.034;-3.030;2023-02-12T16:17:20;4.30;;;3.20;;
38637;SDS011;24401;53.034;-3.030;2023-02-12T16:19:54;3.45;;;3.15;;
38637;SDS011;24401;53.034;-3.030;2023-02-12T16:22:26;3.75;;;3.50;;
38637;SDS011;24401;53.034;-3.030;2023-02-12T16:27:31;3.65;;;3.20;;
38637;SDS011;24401;53.034;-3.030;2023-02-12T16:30:05;4.40;;;2.92;;
38637;SDS011;24401;53.034;-3.030;2023-02-12T16:32:51;4.32;;;3.92;;
38637;SDS011;24401;53.034;-3.030;2023-02-12T16:35:23;3.30;;;3.03;;
38637;SDS011;24401;53.034;-3.030;2023-02-12T16:40:31;4.68;;;4.28;;
38637;SDS011;24401;53.034;-3.030;2023-02-12T16:43:04;4.25;;;3.85;;
38637;SDS011;24401;53.034;-3.030;2023-02-12T16:45:37;5.22;;;4.55;;
38637;SDS011;24401;53.034;-3.030;2023-02-12T16:48:09;4.93;;;4.50;;
38637;SDS011;24401;53.034;-3.030;2023-02-12T16:50:48;5.32;;;4.28;;
38637;SDS011;24401;53.034;-3.030;2023-02-12T16:56:01;5.13;;;4.05;;
38637;SDS011;24401;53.034;-3.030;2023-02-12T16:58:31;4.38;;;3.97;;
38637;SDS011;24401;53.034;-3.030;2023-02-12T17:01:02;4.70;;;4.30;;
38637;SDS011;24401;53.034;-3.030;2023-02-12T17:03:33;4.78;;;4.30;;
38637;SDS011;24401;53.034;-3.030;2023-02-12T17:06:03;4.13;;;3.83;;
38637;SDS011;24401;53.034;-3.030;2023-02-12T17:08:34;5.13;;;4.73;;
38637;SDS011;24401;53.034;-3.030;2023-02-12T17:11:04;4.60;;;4.20;;
38637;SDS011;24401;53.034;-3.030;2023-02-12T17:13:34;5.03;;;4.23;;
38637;SDS011;24401;53.034;-3.030;2023-02-12T17:16:04;6.23;;;5.67;;
38637;SDS011;24401;53.034;-3.030;2023-02-12T17:18:35;9.67;;;5.77;;
38637;SDS011;24401;53.034;-3.030;2023-02-12T17:21:07;7.13;;;6.53;;
38637;SDS011;24401;53.034;-3.030;2023-02-12T17:23:38;6.18;;;5.65;;
38637;SDS011;24401;53.034;-3.030;2023-02-12T17:26:09;4.83;;;4.43;;
38637;SDS011;24401;53.034;-3.030;2023-02-12T17:31:11;5.90;;;5.40;;
38637;SDS011;24401;53.034;-3.030;2023-02-12T17:33:41;6.10;;;5.60;;
38637;SDS011;24401;53.034;-3.030;2023-02-12T17:36:12;5.80;;;4.97;;
38637;SDS011;24401;53.034;-3.030;2023-02-12T17:38:42;7.03;;;4.50;;
38637;SDS011;24401;53.034;-3.030;2023-02-12T17:41:12;10.37;;;5.00;;
38637;SDS011;24401;53.034;-3.030;2023-02-12T17:43:42;5.57;;;5.07;;
38637;SDS011;24401;53.034;-3.030;2023-02-12T17:46:15;5.73;;;5.23;;
38637;SDS011;24401;53.034;-3.030;2023-02-12T17:48:46;6.05;;;5.10;;
38637;SDS011;24401;53.034;-3.030;2023-02-12T17:51:17;6.17;;;5.57;;
38637;SDS011;24401;53.034;-3.030;2023-02-12T17:53:47;7.30;;;6.67;;
38637;SDS011;24401;53.034;-3.030;2023-02-12T17:56:18;6.67;;;6.07;;
38637;SDS011;24401;53.034;-3.030;2023-02-12T17:58:49;6.72;;;6.05;;
38637;SDS011;24401;53.034;-3.030;2023-02-12T18:01:20;7.30;;;6.60;;
38637;SDS011;24401;53.034;-3.030;2023-02-12T18:03:50;11.55;;;7.10;;
38637;SDS011;24401;53.034;-3.030;2023-02-12T18:08:54;13.13;;;11.57;;
38637;SDS011;24401;53.034;-3.030;2023-02-12T18:11:25;9.40;;;7.20;;